sensor_id;sensor_type;location;lat;lon;timestamp;P1;durP1;ratioP1;P2;durP2;ratioP2
69953;SDS011;57276;51.364;12.376;2022-11-25T00:07:12;11.88;;;3.95;;
69953;SDS011;57276;51.364;12.376;2022-11-25T00:13:14;14.77;;;4.27;;
69953;SDS011;57276;51.364;12.376;2022-11-25T00:19:16;9.98;;;3.72;;
69953;SDS011;57276;51.364;12.376;2022-11-25T00:25:17;12.23;;;4.33;;
69953;SDS011;57276;51.364;12.376;2022-11-25T00:31:20;11.10;;;4.10;;
69953;SDS011;57276;51.364;12.376;2022-11-25T00:37:22;12.65;;;4.20;;
69953;SDS011;57276;51.364;12.376;2022-11-25T00:43:24;18.77;;;6.90;;
69953;SDS011;57276;51.364;12.376;2022-11-25T00:49:45;9.98;;;4.90;;
69953;SDS011;57276;51.364;12.376;2022-11-25T00:55:46;9.70;;;3.90;;
69953;SDS011;57276;51.364;12.376;2022-11-25T01:02:21;7.25;;;3.40;;
69953;SDS011;57276;51.364;12.376;2022-11-25T01:08:23;9.30;;;3.63;;
69953;SDS011;57276;51.364;12.376;2022-11-25T01:14:24;10.13;;;3.90;;
69953;SDS011;57276;51.364;12.376;2022-11-25T01:20:26;8.45;;;3.42;;
69953;SDS011;57276;51.364;12.376;2022-11-25T01:26:28;11.80;;;4.03;;
69953;SDS011;57276;51.364;12.376;2022-11-25T01:32:30;12.70;;;4.18;;
69953;SDS011;57276;51.364;12.376;2022-11-25T01:38:31;9.13;;;3.63;;
69953;SDS011;57276;51.364;12.376;2022-11-25T01:44:34;11.20;;;3.50;;
69953;SDS011;57276;51.364;12.376;2022-11-25T01:50:36;8.23;;;3.65;;
69953;SDS011;57276;51.364;12.376;2022-11-25T01:56:41;9.47;;;3.83;;
69953;SDS011;57276;51.364;12.376;2022-11-25T02:02:44;13.73;;;4.05;;
69953;SDS011;57276;51.364;12.376;2022-11-25T02:08:47;9.18;;;3.80;;
69953;SDS011;57276;51.364;12.376;2022-11-25T02:14:51;10.60;;;4.03;;
69953;SDS011;57276;51.364;12.376;2022-11-25T02:20:54;11.45;;;4.57;;
69953;SDS011;57276;51.364;12.376;2022-11-25T02:26:57;9.60;;;3.70;;
69953;SDS011;57276;51.364;12.376;2022-11-25T02:32:59;9.52;;;4.32;;
69953;SDS011;57276;51.364;12.376;2022-11-25T02:39:01;10.00;;;3.83;;
69953;SDS011;57276;51.364;12.376;2022-11-25T02:45:07;10.23;;;3.90;;
69953;SDS011;57276;51.364;12.376;2022-11-25T02:51:13;9.20;;;3.72;;
69953;SDS011;57276;51.364;12.376;2022-11-25T02:57:15;10.50;;;4.03;;
69953;SDS011;57276;51.364;12.376;2022-11-25T03:03:17;9.88;;;4.03;;
69953;SDS011;57276;51.364;12.376;2022-11-25T03:09:20;14.23;;;4.00;;
69953;SDS011;57276;51.364;12.376;2022-11-25T03:15:22;10.73;;;3.73;;
69953;SDS011;57276;51.364;12.376;2022-11-25T03:21:23;9.55;;;3.17;;
69953;SDS011;57276;51.364;12.376;2022-11-25T03:27:25;9.63;;;3.73;;
69953;SDS011;57276;51.364;12.376;2022-11-25T03:33:31;10.55;;;3.50;;
69953;SDS011;57276;51.364;12.376;2022-11-25T03:39:32;6.75;;;3.08;;
69953;SDS011;57276;51.364;12.376;2022-11-25T03:45:34;13.13;;;4.07;;
69953;SDS011;57276;51.364;12.376;2022-11-25T03:51:38;10.70;;;3.67;;
69953;SDS011;57276;51.364;12.376;2022-11-25T03:57:41;9.03;;;3.47;;
69953;SDS011;57276;51.364;12.376;2022-11-25T04:03:42;8.80;;;3.10;;
69953;SDS011;57276;51.364;12.376;2022-11-25T04:09:44;10.88;;;3.90;;
69953;SDS011;57276;51.364;12.376;2022-11-25T04:15:50;10.03;;;3.30;;
69953;SDS011;57276;51.364;12.376;2022-11-25T04:21:52;10.57;;;3.47;;
69953;SDS011;57276;51.364;12.376;2022-11-25T04:27:54;7.67;;;3.10;;
69953;SDS011;57276;51.364;12.376;2022-11-25T04:34:01;9.85;;;3.38;;
69953;SDS011;57276;51.364;12.376;2022-11-25T04:40:03;7.30;;;3.30;;
69953;SDS011;57276;51.364;12.376;2022-11-25T04:46:06;11.23;;;3.40;;
69953;SDS011;57276;51.364;12.376;2022-11-25T04:52:19;10.88;;;3.60;;
69953;SDS011;57276;51.364;12.376;2022-11-25T04:58:21;10.13;;;3.50;;
69953;SDS011;57276;51.364;12.376;2022-11-25T05:04:43;9.60;;;3.33;;
69953;SDS011;57276;51.364;12.376;2022-11-25T05:10:46;10.05;;;3.63;;
69953;SDS011;57276;51.364;12.376;2022-11-25T05:16:48;14.20;;;3.70;;
69953;SDS011;57276;51.364;12.376;2022-11-25T05:22:51;15.85;;;3.80;;
69953;SDS011;57276;51.364;12.376;2022-11-25T05:28:55;10.40;;;3.57;;
69953;SDS011;57276;51.364;12.376;2022-11-25T05:34:57;12.23;;;3.85;;
69953;SDS011;57276;51.364;12.376;2022-11-25T05:41:00;13.77;;;4.60;;
69953;SDS011;57276;51.364;12.376;2022-11-25T05:47:02;12.80;;;3.60;;
69953;SDS011;57276;51.364;12.376;2022-11-25T05:53:05;14.07;;;3.72;;
69953;SDS011;57276;51.364;12.376;2022-11-25T05:59:09;11.23;;;3.50;;
69953;SDS011;57276;51.364;12.376;2022-11-25T06:05:19;11.00;;;4.25;;
69953;SDS011;57276;51.364;12.376;2022-11-25T06:11:21;11.30;;;5.00;;
69953;SDS011;57276;51.364;12.376;2022-11-25T06:17:23;11.83;;;4.10;;
69953;SDS011;57276;51.364;12.376;2022-11-25T06:23:41;11.70;;;4.40;;
69953;SDS011;57276;51.364;12.376;2022-11-25T06:29:47;11.27;;;3.50;;
69953;SDS011;57276;51.364;12.376;2022-11-25T06:35:48;14.40;;;3.85;;
69953;SDS011;57276;51.364;12.376;2022-11-25T06:41:50;8.52;;;3.70;;
69953;SDS011;57276;51.364;12.376;2022-11-25T06:47:51;10.30;;;4.10;;
69953;SDS011;57276;51.364;12.376;2022-11-25T06:53:54;14.00;;;4.10;;
69953;SDS011;57276;51.364;12.376;2022-11-25T06:59:55;17.87;;;4.50;;
69953;SDS011;57276;51.364;12.376;2022-11-25T07:05:57;13.10;;;3.95;;
69953;SDS011;57276;51.364;12.376;2022-11-25T07:11:59;14.85;;;4.03;;
69953;SDS011;57276;51.364;12.376;2022-11-25T07:18:01;8.90;;;4.10;;
69953;SDS011;57276;51.364;12.376;2022-11-25T07:24:03;11.68;;;4.00;;
69953;SDS011;57276;51.364;12.376;2022-11-25T07:30:05;12.33;;;4.17;;
69953;SDS011;57276;51.364;12.376;2022-11-25T07:36:28;10.23;;;4.00;;
69953;SDS011;57276;51.364;12.376;2022-11-25T07:42:30;7.95;;;3.80;;
69953;SDS011;57276;51.364;12.376;2022-11-25T07:48:31;13.17;;;4.47;;
69953;SDS011;57276;51.364;12.376;2022-11-25T07:54:33;10.57;;;4.25;;
69953;SDS011;57276;51.364;12.376;2022-11-25T08:00:35;14.33;;;4.37;;
69953;SDS011;57276;51.364;12.376;2022-11-25T08:06:37;13.10;;;5.00;;
69953;SDS011;57276;51.364;12.376;2022-11-25T08:12:39;13.93;;;4.88;;
69953;SDS011;57276;51.364;12.376;2022-11-25T08:18:41;11.20;;;4.70;;
69953;SDS011;57276;51.364;12.376;2022-11-25T08:24:42;12.45;;;5.30;;
69953;SDS011;57276;51.364;12.376;2022-11-25T08:30:44;10.50;;;4.73;;
69953;SDS011;57276;51.364;12.376;2022-11-25T08:36:46;13.18;;;5.28;;
69953;SDS011;57276;51.364;12.376;2022-11-25T08:42:49;12.27;;;5.43;;
69953;SDS011;57276;51.364;12.376;2022-11-25T08:48:50;10.97;;;5.27;;
69953;SDS011;57276;51.364;12.376;2022-11-25T08:54:52;20.67;;;6.68;;
69953;SDS011;57276;51.364;12.376;2022-11-25T09:00:54;14.37;;;5.93;;
69953;SDS011;57276;51.364;12.376;2022-11-25T09:06:55;13.77;;;6.00;;
69953;SDS011;57276;51.364;12.376;2022-11-25T09:12:57;14.25;;;6.45;;
69953;SDS011;57276;51.364;12.376;2022-11-25T09:18:59;12.90;;;5.60;;
69953;SDS011;57276;51.364;12.376;2022-11-25T09:25:01;16.42;;;6.38;;
69953;SDS011;57276;51.364;12.376;2022-11-25T09:31:06;11.70;;;5.50;;
69953;SDS011;57276;51.364;12.376;2022-11-25T09:37:07;13.10;;;5.25;;
69953;SDS011;57276;51.364;12.376;2022-11-25T09:49:58;12.13;;;5.67;;
69953;SDS011;57276;51.364;12.376;2022-11-25T09:56:03;12.30;;;5.28;;
69953;SDS011;57276;51.364;12.376;2022-11-25T10:02:28;12.70;;;5.80;;
69953;SDS011;57276;51.364;12.376;2022-11-25T10:08:37;12.95;;;5.80;;
69953;SDS011;57276;51.364;12.376;2022-11-25T10:14:43;14.85;;;5.50;;
69953;SDS011;57276;51.364;12.376;2022-11-25T10:20:45;13.17;;;5.70;;
69953;SDS011;57276;51.364;12.376;2022-11-25T10:27:05;11.95;;;4.95;;
69953;SDS011;57276;51.364;12.376;2022-11-25T10:39:32;8.70;;;4.43;;
69953;SDS011;57276;51.364;12.376;2022-11-25T10:45:35;10.35;;;4.03;;
69953;SDS011;57276;51.364;12.376;2022-11-25T10:57:42;8.20;;;3.70;;
69953;SDS011;57276;51.364;12.376;2022-11-25T11:03:45;8.83;;;3.13;;
69953;SDS011;57276;51.364;12.376;2022-11-25T11:09:47;7.53;;;3.15;;
69953;SDS011;57276;51.364;12.376;2022-11-25T11:15:49;8.88;;;3.28;;
69953;SDS011;57276;51.364;12.376;2022-11-25T11:21:51;7.50;;;2.53;;
69953;SDS011;57276;51.364;12.376;2022-11-25T11:27:53;10.52;;;2.58;;
69953;SDS011;57276;51.364;12.376;2022-11-25T11:34:02;6.93;;;2.17;;
69953;SDS011;57276;51.364;12.376;2022-11-25T11:47:00;5.63;;;2.08;;
69953;SDS011;57276;51.364;12.376;2022-11-25T11:52:39;8.23;;;2.47;;
69953;SDS011;57276;51.364;12.376;2022-11-25T12:04:55;5.70;;;2.30;;
69953;SDS011;57276;51.364;12.376;2022-11-25T12:11:03;6.70;;;2.13;;
69953;SDS011;57276;51.364;12.376;2022-11-25T12:23:28;7.07;;;1.90;;
69953;SDS011;57276;51.364;12.376;2022-11-25T12:29:35;5.93;;;2.08;;
69953;SDS011;57276;51.364;12.376;2022-11-25T12:35:48;10.83;;;2.20;;
69953;SDS011;57276;51.364;12.376;2022-11-25T12:41:59;6.50;;;2.03;;
69953;SDS011;57276;51.364;12.376;2022-11-25T12:48:02;7.25;;;2.20;;
69953;SDS011;57276;51.364;12.376;2022-11-25T12:54:14;8.03;;;2.00;;
69953;SDS011;57276;51.364;12.376;2022-11-25T13:07:06;6.00;;;2.20;;
69953;SDS011;57276;51.364;12.376;2022-11-25T13:13:26;6.22;;;2.40;;
69953;SDS011;57276;51.364;12.376;2022-11-25T13:19:31;6.22;;;2.20;;
69953;SDS011;57276;51.364;12.376;2022-11-25T13:25:40;6.33;;;2.17;;
69953;SDS011;57276;51.364;12.376;2022-11-25T13:31:55;4.97;;;1.95;;
69953;SDS011;57276;51.364;12.376;2022-11-25T13:37:59;9.37;;;2.77;;
69953;SDS011;57276;51.364;12.376;2022-11-25T13:44:05;9.70;;;2.20;;
69953;SDS011;57276;51.364;12.376;2022-11-25T13:56:26;7.50;;;2.47;;
69953;SDS011;57276;51.364;12.376;2022-11-25T14:21:18;11.40;;;3.03;;
69953;SDS011;57276;51.364;12.376;2022-11-25T14:27:25;7.57;;;2.40;;
69953;SDS011;57276;51.364;12.376;2022-11-25T14:33:32;7.72;;;2.55;;
69953;SDS011;57276;51.364;12.376;2022-11-25T14:45:36;9.68;;;3.08;;
69953;SDS011;57276;51.364;12.376;2022-11-25T14:51:38;5.90;;;2.13;;
69953;SDS011;57276;51.364;12.376;2022-11-25T14:57:42;7.87;;;2.20;;
69953;SDS011;57276;51.364;12.376;2022-11-25T15:03:46;8.73;;;2.25;;
69953;SDS011;57276;51.364;12.376;2022-11-25T15:09:48;10.27;;;2.87;;
69953;SDS011;57276;51.364;12.376;2022-11-25T15:15:49;7.20;;;2.70;;
69953;SDS011;57276;51.364;12.376;2022-11-25T15:22:02;10.25;;;2.53;;
69953;SDS011;57276;51.364;12.376;2022-11-25T15:28:24;10.13;;;3.10;;
69953;SDS011;57276;51.364;12.376;2022-11-25T15:34:26;8.90;;;3.15;;
69953;SDS011;57276;51.364;12.376;2022-11-25T15:40:33;7.97;;;3.30;;
69953;SDS011;57276;51.364;12.376;2022-11-25T15:46:39;9.00;;;3.10;;
69953;SDS011;57276;51.364;12.376;2022-11-25T15:52:43;7.78;;;2.95;;
69953;SDS011;57276;51.364;12.376;2022-11-25T15:58:45;11.10;;;2.90;;
69953;SDS011;57276;51.364;12.376;2022-11-25T16:04:46;13.48;;;3.80;;
69953;SDS011;57276;51.364;12.376;2022-11-25T16:10:49;10.40;;;3.77;;
69953;SDS011;57276;51.364;12.376;2022-11-25T16:17:01;15.65;;;4.05;;
69953;SDS011;57276;51.364;12.376;2022-11-25T16:23:07;12.02;;;4.68;;
69953;SDS011;57276;51.364;12.376;2022-11-25T16:29:14;16.30;;;4.83;;
69953;SDS011;57276;51.364;12.376;2022-11-25T16:35:17;14.48;;;5.78;;
69953;SDS011;57276;51.364;12.376;2022-11-25T16:41:22;15.77;;;5.83;;
69953;SDS011;57276;51.364;12.376;2022-11-25T16:47:24;16.73;;;6.22;;
69953;SDS011;57276;51.364;12.376;2022-11-25T16:53:27;20.33;;;7.28;;
69953;SDS011;57276;51.364;12.376;2022-11-25T16:59:29;16.20;;;7.23;;
69953;SDS011;57276;51.364;12.376;2022-11-25T17:05:32;16.20;;;8.02;;
69953;SDS011;57276;51.364;12.376;2022-11-25T17:11:37;19.40;;;7.90;;
69953;SDS011;57276;51.364;12.376;2022-11-25T17:17:46;17.73;;;7.07;;
69953;SDS011;57276;51.364;12.376;2022-11-25T17:23:48;14.80;;;6.28;;
69953;SDS011;57276;51.364;12.376;2022-11-25T17:29:56;13.13;;;5.47;;
69953;SDS011;57276;51.364;12.376;2022-11-25T17:35:58;15.00;;;5.68;;
69953;SDS011;57276;51.364;12.376;2022-11-25T17:42:00;14.60;;;5.37;;
69953;SDS011;57276;51.364;12.376;2022-11-25T17:48:06;15.05;;;6.00;;
69953;SDS011;57276;51.364;12.376;2022-11-25T17:54:09;11.93;;;6.50;;
69953;SDS011;57276;51.364;12.376;2022-11-25T18:00:11;14.50;;;7.27;;
69953;SDS011;57276;51.364;12.376;2022-11-25T18:06:13;15.52;;;7.40;;
69953;SDS011;57276;51.364;12.376;2022-11-25T18:12:18;15.40;;;8.90;;
69953;SDS011;57276;51.364;12.376;2022-11-25T18:18:22;17.40;;;8.90;;
69953;SDS011;57276;51.364;12.376;2022-11-25T18:24:24;22.73;;;10.07;;
69953;SDS011;57276;51.364;12.376;2022-11-25T18:30:27;19.40;;;9.77;;
69953;SDS011;57276;51.364;12.376;2022-11-25T18:36:29;17.98;;;9.75;;
69953;SDS011;57276;51.364;12.376;2022-11-25T18:42:30;20.13;;;10.07;;
69953;SDS011;57276;51.364;12.376;2022-11-25T18:48:32;16.55;;;9.23;;
69953;SDS011;57276;51.364;12.376;2022-11-25T18:54:34;19.38;;;10.57;;
69953;SDS011;57276;51.364;12.376;2022-11-25T19:00:36;24.37;;;12.60;;
69953;SDS011;57276;51.364;12.376;2022-11-25T19:06:38;28.10;;;15.15;;
69953;SDS011;57276;51.364;12.376;2022-11-25T19:12:42;28.67;;;16.97;;
69953;SDS011;57276;51.364;12.376;2022-11-25T19:18:45;29.33;;;15.45;;
69953;SDS011;57276;51.364;12.376;2022-11-25T19:24:48;28.75;;;15.05;;
69953;SDS011;57276;51.364;12.376;2022-11-25T19:30:49;27.33;;;14.33;;
69953;SDS011;57276;51.364;12.376;2022-11-25T19:36:53;28.85;;;14.98;;
69953;SDS011;57276;51.364;12.376;2022-11-25T19:42:55;27.23;;;13.93;;
69953;SDS011;57276;51.364;12.376;2022-11-25T19:48:57;27.45;;;13.88;;
69953;SDS011;57276;51.364;12.376;2022-11-25T19:55:22;25.63;;;12.88;;
69953;SDS011;57276;51.364;12.376;2022-11-25T20:01:22;22.83;;;12.63;;
69953;SDS011;57276;51.364;12.376;2022-11-25T20:07:25;22.92;;;11.43;;
69953;SDS011;57276;51.364;12.376;2022-11-25T20:13:27;20.47;;;9.93;;
69953;SDS011;57276;51.364;12.376;2022-11-25T20:19:29;19.20;;;9.93;;
69953;SDS011;57276;51.364;12.376;2022-11-25T20:25:32;20.20;;;9.60;;
69953;SDS011;57276;51.364;12.376;2022-11-25T20:31:34;21.43;;;10.53;;
69953;SDS011;57276;51.364;12.376;2022-11-25T20:37:36;23.10;;;12.20;;
69953;SDS011;57276;51.364;12.376;2022-11-25T20:43:58;27.13;;;13.67;;
69953;SDS011;57276;51.364;12.376;2022-11-25T20:50:00;24.67;;;14.20;;
69953;SDS011;57276;51.364;12.376;2022-11-25T20:56:02;24.05;;;14.35;;
69953;SDS011;57276;51.364;12.376;2022-11-25T21:02:03;30.83;;;17.17;;
69953;SDS011;57276;51.364;12.376;2022-11-25T21:08:11;31.38;;;17.48;;
69953;SDS011;57276;51.364;12.376;2022-11-25T21:14:15;27.97;;;16.93;;
69953;SDS011;57276;51.364;12.376;2022-11-25T21:20:18;27.00;;;15.45;;
69953;SDS011;57276;51.364;12.376;2022-11-25T21:26:20;27.83;;;14.52;;
69953;SDS011;57276;51.364;12.376;2022-11-25T21:32:24;22.97;;;12.27;;
69953;SDS011;57276;51.364;12.376;2022-11-25T21:38:25;20.92;;;11.18;;
69953;SDS011;57276;51.364;12.376;2022-11-25T21:44:30;21.53;;;10.50;;
69953;SDS011;57276;51.364;12.376;2022-11-25T21:50:32;20.23;;;8.90;;
69953;SDS011;57276;51.364;12.376;2022-11-25T21:56:34;17.73;;;8.23;;
69953;SDS011;57276;51.364;12.376;2022-11-25T22:02:35;20.13;;;8.30;;
69953;SDS011;57276;51.364;12.376;2022-11-25T22:08:37;16.15;;;7.70;;
69953;SDS011;57276;51.364;12.376;2022-11-25T22:14:38;18.63;;;8.23;;
69953;SDS011;57276;51.364;12.376;2022-11-25T22:20:41;22.90;;;9.55;;
69953;SDS011;57276;51.364;12.376;2022-11-25T22:26:43;17.15;;;7.90;;
69953;SDS011;57276;51.364;12.376;2022-11-25T22:32:48;22.63;;;10.03;;
69953;SDS011;57276;51.364;12.376;2022-11-25T22:38:50;43.38;;;20.42;;
69953;SDS011;57276;51.364;12.376;2022-11-25T22:44:52;18.23;;;9.43;;
69953;SDS011;57276;51.364;12.376;2022-11-25T22:50:55;27.42;;;11.65;;
69953;SDS011;57276;51.364;12.376;2022-11-25T22:56:57;21.63;;;8.75;;
69953;SDS011;57276;51.364;12.376;2022-11-25T23:02:58;32.90;;;14.83;;
69953;SDS011;57276;51.364;12.376;2022-11-25T23:09:01;43.05;;;22.20;;
69953;SDS011;57276;51.364;12.376;2022-11-25T23:15:03;27.33;;;13.50;;
69953;SDS011;57276;51.364;12.376;2022-11-25T23:21:18;22.40;;;9.68;;
69953;SDS011;57276;51.364;12.376;2022-11-25T23:27:20;18.95;;;9.20;;
69953;SDS011;57276;51.364;12.376;2022-11-25T23:33:38;26.73;;;10.63;;
69953;SDS011;57276;51.364;12.376;2022-11-25T23:39:40;21.10;;;9.45;;
69953;SDS011;57276;51.364;12.376;2022-11-25T23:45:44;29.80;;;13.27;;
69953;SDS011;57276;51.364;12.376;2022-11-25T23:51:47;32.72;;;13.68;;
69953;SDS011;57276;51.364;12.376;2022-11-25T23:57:48;21.20;;;9.55;;
